Time;durP1;ratioP1;P1;durP2;ratioP2;P2;SDS_P1;SDS_P2;PMS_P1;PMS_P2;Temp;Humidity;BMP_temperature;BMP_pressure;BME280_temperature;BME280_humidity;BME280_pressure;Samples;Min_cycle;Max_cycle;Signal;HPM_P1;HPM_P2
2021/10/24 00:00:06;;;;;;;8.90;7.07;;;1.90;99.90;;;;;;5018022;28;20199;-69
2021/10/24 00:02:32;;;;;;;7.25;5.80;;;1.80;99.90;;;;;;5022561;28;20900;-70
2021/10/24 00:04:57;;;;;;;6.70;5.97;;;1.90;99.90;;;;;;5025572;28;20187;-69
2021/10/24 00:07:23;;;;;;;8.10;5.97;;;1.90;99.90;;;;;;5029241;28;20194;-69
2021/10/24 00:09:50;;;;;;;8.87;6.27;;;1.90;99.90;;;;;;5012674;28;20188;-70
2021/10/24 00:12:16;;;;;;;9.35;7.10;;;1.70;99.90;;;;;;5009734;28;20271;-69
2021/10/24 00:14:42;;;;;;;6.45;5.78;;;1.70;99.90;;;;;;5006868;28;20180;-69
2021/10/24 00:17:08;;;;;;;7.80;7.00;;;2.00;99.90;;;;;;5005996;28;20191;-69
2021/10/24 00:19:35;;;;;;;7.72;5.88;;;1.90;99.90;;;;;;5035055;28;20195;-69
2021/10/24 00:22:00;;;;;;;9.25;6.53;;;1.70;99.90;;;;;;5012454;28;20235;-69
2021/10/24 00:24:26;;;;;;;7.87;7.07;;;1.90;99.90;;;;;;5009225;28;20219;-69
2021/10/24 00:26:51;;;;;;;7.20;6.50;;;1.70;99.90;;;;;;5008730;28;20219;-69
2021/10/24 00:29:17;;;;;;;7.20;6.50;;;1.80;99.90;;;;;;5027195;28;20594;-69
2021/10/24 00:31:42;;;;;;;7.80;7.00;;;1.90;99.90;;;;;;5041818;28;20700;-70
2021/10/24 00:34:08;;;;;;;8.40;6.73;;;1.60;99.90;;;;;;5012512;28;20247;-69
2021/10/24 00:36:34;;;;;;;8.13;7.30;;;1.90;99.90;;;;;;5026575;28;20278;-71
2021/10/24 00:38:59;;;;;;;9.43;7.73;;;1.90;99.90;;;;;;5024866;28;20481;-69
2021/10/24 00:41:25;;;;;;;7.33;6.63;;;1.80;99.90;;;;;;5048252;28;20214;-69
2021/10/24 00:43:51;;;;;;;7.55;6.88;;;1.60;99.90;;;;;;5024718;28;20187;-71
2021/10/24 00:46:16;;;;;;;10.10;7.00;;;1.90;99.90;;;;;;5027184;28;20183;-69
2021/10/24 00:48:42;;;;;;;8.57;6.37;;;1.70;99.90;;;;;;5024871;28;20187;-69
2021/10/24 00:51:08;;;;;;;9.80;7.10;;;1.70;99.90;;;;;;5041867;28;20183;-70
2021/10/24 00:53:34;;;;;;;8.68;6.60;;;1.70;99.90;;;;;;5024982;28;20302;-69
2021/10/24 00:56:00;;;;;;;8.27;6.30;;;1.50;99.90;;;;;;5006875;28;20210;-69
2021/10/24 00:58:26;;;;;;;7.43;6.65;;;1.60;99.90;;;;;;5005397;28;20506;-70
2021/10/24 01:00:52;;;;;;;11.50;7.40;;;1.70;99.90;;;;;;5020281;28;20206;-70
2021/10/24 01:03:18;;;;;;;6.90;6.07;;;1.80;99.90;;;;;;5037666;28;20518;-69
2021/10/24 01:05:44;;;;;;;7.00;6.10;;;1.40;99.90;;;;;;5028888;28;20667;-69
2021/10/24 01:08:10;;;;;;;8.10;6.82;;;1.40;99.90;;;;;;5027590;28;20195;-69
2021/10/24 01:10:36;;;;;;;8.25;6.45;;;1.40;99.90;;;;;;5026935;28;20203;-69
2021/10/24 01:13:03;;;;;;;7.00;6.18;;;1.80;99.90;;;;;;5016764;28;20311;-70
2021/10/24 01:15:28;;;;;;;8.57;7.28;;;1.60;99.90;;;;;;5023533;28;20188;-68
2021/10/24 01:17:54;;;;;;;8.47;6.40;;;1.60;99.90;;;;;;5027455;28;20286;-68
2021/10/24 01:20:25;;;;;;;7.30;6.63;;;1.50;99.90;;;;;;5026129;28;20245;-69
2021/10/24 01:22:52;;;;;;;7.35;6.38;;;1.60;99.90;;;;;;5040257;28;20217;-69
2021/10/24 01:25:18;;;;;;;7.72;6.22;;;1.50;99.90;;;;;;5028655;28;20195;-69
2021/10/24 01:27:44;;;;;;;7.10;6.35;;;1.60;99.90;;;;;;5025631;28;20189;-69
2021/10/24 01:30:10;;;;;;;8.70;6.35;;;1.60;99.90;;;;;;5028904;28;20211;-70
2021/10/24 01:32:35;;;;;;;7.37;6.27;;;1.50;99.90;;;;;;5045045;28;20225;-69
2021/10/24 01:35:01;;;;;;;7.10;5.57;;;1.60;99.90;;;;;;5033712;28;20576;-69
2021/10/24 01:37:39;;;;;;;7.80;5.97;;;1.20;99.90;;;;;;5008441;28;20179;-70
2021/10/24 01:40:10;;;;;;;9.70;6.50;;;1.40;99.90;;;;;;5024083;28;20800;-69
2021/10/24 01:42:56;;;;;;;7.25;5.97;;;1.30;99.90;;;;;;5027950;28;20229;-69
2021/10/24 01:45:23;;;;;;;6.03;5.43;;;1.60;99.90;;;;;;5046135;28;20210;-69
2021/10/24 01:47:50;;;;;;;11.35;5.85;;;1.40;99.90;;;;;;5041133;28;20195;-69
2021/10/24 01:50:16;;;;;;;7.07;5.88;;;1.60;99.90;;;;;;5006595;28;20195;-69
2021/10/24 01:52:44;;;;;;;5.72;5.10;;;1.00;99.90;;;;;;5006892;28;20208;-70
2021/10/24 01:55:11;;;;;;;6.20;5.57;;;1.30;99.90;;;;;;5026812;28;20187;-69
2021/10/24 01:57:39;;;;;;;8.70;5.68;;;1.40;99.90;;;;;;5026696;28;20189;-70
2021/10/24 02:00:05;;;;;;;6.75;6.05;;;1.10;99.90;;;;;;5023527;28;20210;-69
2021/10/24 02:02:32;;;;;;;7.45;5.68;;;1.30;99.90;;;;;;5011930;28;20227;-69
2021/10/24 02:04:58;;;;;;;6.72;5.45;;;1.00;99.90;;;;;;5022970;28;20194;-69
2021/10/24 02:07:24;;;;;;;7.27;6.57;;;1.30;99.90;;;;;;5042295;28;20232;-69
2021/10/24 02:09:50;;;;;;;6.63;5.57;;;1.00;99.90;;;;;;5004748;28;20342;-71
2021/10/24 02:12:15;;;;;;;6.40;5.80;;;1.00;99.90;;;;;;5007593;28;20247;-70
2021/10/24 02:14:41;;;;;;;7.13;6.03;;;1.30;99.90;;;;;;5018356;28;20751;-69
2021/10/24 02:17:06;;;;;;;6.43;5.23;;;1.10;99.90;;;;;;5045954;28;20543;-69
2021/10/24 02:19:32;;;;;;;6.10;5.50;;;1.00;99.90;;;;;;5044967;28;20183;-70
2021/10/24 02:21:57;;;;;;;7.50;6.00;;;1.40;99.90;;;;;;5026555;28;20274;-69
2021/10/24 02:24:23;;;;;;;7.43;5.43;;;1.10;99.90;;;;;;5007840;28;20274;-69
2021/10/24 02:26:48;;;;;;;8.10;6.10;;;1.00;99.90;;;;;;5008063;28;20180;-71
2021/10/24 02:29:14;;;;;;;6.03;5.43;;;1.00;99.90;;;;;;5010644;28;20201;-69
2021/10/24 02:31:39;;;;;;;5.87;5.27;;;1.40;99.90;;;;;;5042808;28;20680;-70
2021/10/24 02:34:05;;;;;;;7.67;6.87;;;1.10;99.90;;;;;;5019037;28;20203;-69
2021/10/24 02:36:30;;;;;;;6.70;6.07;;;1.00;99.90;;;;;;5007792;28;20238;-70
2021/10/24 02:38:56;;;;;;;6.70;5.97;;;1.30;99.90;;;;;;5012578;28;20546;-69
2021/10/24 02:41:21;;;;;;;7.40;6.67;;;1.00;99.90;;;;;;5041794;28;20318;-68
2021/10/24 02:43:47;;;;;;;6.50;5.90;;;1.00;99.90;;;;;;5015940;28;20253;-69
2021/10/24 02:46:12;;;;;;;8.07;6.90;;;0.90;99.90;;;;;;5006386;28;20190;-70
2021/10/24 02:48:38;;;;;;;7.37;5.80;;;1.10;99.90;;;;;;5007412;28;20613;-69
2021/10/24 02:51:03;;;;;;;8.03;6.50;;;1.00;99.90;;;;;;5040400;28;20650;-70
2021/10/24 02:53:29;;;;;;;8.67;6.27;;;0.90;99.90;;;;;;5040199;28;20178;-68
2021/10/24 02:55:54;;;;;;;6.53;5.63;;;1.10;99.90;;;;;;5020602;28;20281;-68
2021/10/24 02:58:20;;;;;;;6.07;5.47;;;0.90;99.90;;;;;;5025942;28;20191;-69
2021/10/24 03:00:45;;;;;;;6.13;5.53;;;1.20;99.90;;;;;;5038871;28;20182;-69
2021/10/24 03:03:11;;;;;;;7.53;5.70;;;1.10;99.90;;;;;;5045705;28;20232;-69
2021/10/24 03:05:36;;;;;;;8.07;6.20;;;0.90;99.90;;;;;;5022487;28;20693;-68
2021/10/24 03:08:02;;;;;;;7.47;6.63;;;1.20;99.90;;;;;;5002413;28;20188;-68
2021/10/24 03:10:28;;;;;;;7.17;6.50;;;1.10;99.90;;;;;;5023290;28;20193;-68
2021/10/24 03:12:53;;;;;;;6.80;6.00;;;1.30;99.90;;;;;;5029342;28;20187;-68
2021/10/24 03:15:19;;;;;;;6.73;6.03;;;0.90;99.90;;;;;;5024822;28;20183;-69
2021/10/24 03:17:44;;;;;;;7.40;6.37;;;1.00;99.90;;;;;;5025696;28;20531;-68
2021/10/24 03:20:10;;;;;;;6.37;5.77;;;0.80;99.90;;;;;;5025578;28;20248;-68
2021/10/24 03:22:35;;;;;;;6.60;5.60;;;0.80;99.90;;;;;;5041610;28;20309;-70
2021/10/24 03:25:01;;;;;;;5.87;5.27;;;0.80;99.90;;;;;;5023391;28;20521;-68
2021/10/24 03:27:27;;;;;;;6.50;5.13;;;0.80;99.90;;;;;;5013404;28;20192;-68
2021/10/24 03:29:52;;;;;;;7.07;5.83;;;0.70;99.90;;;;;;5005809;28;20234;-69
2021/10/24 03:32:18;;;;;;;5.70;5.10;;;0.90;99.90;;;;;;5004264;28;20543;-68
2021/10/24 03:34:43;;;;;;;9.10;5.83;;;0.90;99.90;;;;;;5003791;28;20613;-69
2021/10/24 03:37:09;;;;;;;6.10;5.50;;;0.80;99.90;;;;;;5009765;28;20195;-68
2021/10/24 03:39:34;;;;;;;5.67;5.07;;;0.90;99.90;;;;;;5005496;28;20589;-69
2021/10/24 03:42:00;;;;;;;5.67;5.10;;;1.00;99.90;;;;;;5022177;28;20653;-70
2021/10/24 03:44:26;;;;;;;6.63;5.93;;;0.80;99.90;;;;;;5021657;28;20238;-68
2021/10/24 03:46:52;;;;;;;6.18;5.35;;;0.70;99.90;;;;;;5012039;28;20191;-68
2021/10/24 03:49:17;;;;;;;6.83;5.33;;;0.70;99.90;;;;;;5005080;28;20188;-69
2021/10/24 03:51:43;;;;;;;5.83;5.00;;;1.00;99.90;;;;;;5006914;28;20276;-68
2021/10/24 03:54:09;;;;;;;7.40;5.50;;;0.80;99.90;;;;;;5005053;28;20691;-70
2021/10/24 03:56:34;;;;;;;6.80;4.73;;;0.70;99.90;;;;;;5004349;28;20191;-69
2021/10/24 03:59:00;;;;;;;5.43;4.93;;;0.70;99.90;;;;;;5019725;28;20659;-70
2021/10/24 04:01:25;;;;;;;5.07;4.47;;;0.60;99.90;;;;;;5026677;28;20214;-69
2021/10/24 04:03:51;;;;;;;5.30;4.50;;;0.70;99.90;;;;;;5025266;28;20654;-68
2021/10/24 04:06:16;;;;;;;6.33;4.67;;;0.80;99.90;;;;;;5012445;28;20228;-68
2021/10/24 04:08:42;;;;;;;4.50;4.10;;;0.70;99.90;;;;;;5028111;28;20194;-69
2021/10/24 04:11:07;;;;;;;5.70;4.90;;;0.70;99.90;;;;;;5002112;28;20540;-68
2021/10/24 04:13:33;;;;;;;5.43;4.70;;;0.60;99.90;;;;;;5006703;28;20271;-68
2021/10/24 04:15:58;;;;;;;7.27;4.93;;;0.70;99.90;;;;;;5005467;28;20188;-68
2021/10/24 04:18:24;;;;;;;5.20;4.70;;;0.80;99.90;;;;;;5015108;28;20225;-68
2021/10/24 04:20:49;;;;;;;6.10;4.63;;;0.50;99.90;;;;;;5021142;28;20187;-71
2021/10/24 04:23:15;;;;;;;7.63;5.60;;;0.50;99.90;;;;;;5023789;28;20662;-68
2021/10/24 04:25:40;;;;;;;6.23;4.93;;;0.50;99.90;;;;;;5026187;28;20651;-69
2021/10/24 04:28:06;;;;;;;5.67;5.03;;;0.50;99.90;;;;;;5026670;28;20199;-68
2021/10/24 04:30:31;;;;;;;4.53;4.13;;;0.50;99.90;;;;;;5021441;28;20180;-69
2021/10/24 04:32:57;;;;;;;8.00;4.30;;;0.70;99.90;;;;;;5019640;28;20183;-69
2021/10/24 04:35:23;;;;;;;5.70;4.70;;;0.50;99.90;;;;;;5025407;28;20211;-68
2021/10/24 04:37:48;;;;;;;7.50;4.80;;;0.50;99.90;;;;;;5028636;28;20245;-68
2021/10/24 04:40:14;;;;;;;5.87;4.40;;;0.50;99.90;;;;;;5025770;28;20196;-70
2021/10/24 04:42:40;;;;;;;5.60;5.10;;;0.50;99.90;;;;;;5026410;28;20887;-70
2021/10/24 04:45:07;;;;;;;8.30;5.77;;;0.40;99.90;;;;;;5024019;28;20734;-69
2021/10/24 04:47:33;;;;;;;6.45;5.13;;;0.50;99.90;;;;;;5024372;28;20192;-69
2021/10/24 04:49:59;;;;;;;6.25;4.70;;;0.60;99.90;;;;;;5025708;28;20191;-69
2021/10/24 04:52:24;;;;;;;6.87;4.93;;;0.70;99.90;;;;;;5028398;28;20191;-69
2021/10/24 04:54:50;;;;;;;5.90;5.30;;;0.60;99.90;;;;;;5029769;28;20554;-68
2021/10/24 04:57:15;;;;;;;7.03;4.90;;;0.60;99.90;;;;;;5033671;28;20221;-68
2021/10/24 04:59:41;;;;;;;5.30;4.60;;;0.60;99.90;;;;;;5019892;28;20431;-69
2021/10/24 05:02:07;;;;;;;7.10;5.63;;;0.60;99.90;;;;;;5023865;28;20211;-69
2021/10/24 05:04:32;;;;;;;6.20;4.53;;;0.70;99.90;;;;;;5027099;28;20189;-69
2021/10/24 05:06:58;;;;;;;5.13;4.63;;;0.60;99.90;;;;;;5028850;28;20288;-68
2021/10/24 05:09:23;;;;;;;4.70;4.03;;;0.50;99.90;;;;;;5027242;28;20199;-68
2021/10/24 05:11:49;;;;;;;6.27;4.90;;;0.40;99.90;;;;;;5024634;28;20179;-70
2021/10/24 05:14:15;;;;;;;12.10;4.70;;;0.30;99.90;;;;;;5023722;28;20189;-69
2021/10/24 05:16:40;;;;;;;4.37;3.97;;;0.50;99.90;;;;;;5024746;28;20241;-69
2021/10/24 05:19:06;;;;;;;5.47;3.97;;;0.50;99.90;;;;;;5028826;28;20429;-69
2021/10/24 05:21:31;;;;;;;4.87;4.40;;;0.20;99.90;;;;;;5028233;28;20215;-68
2021/10/24 05:23:57;;;;;;;5.33;4.73;;;0.60;99.90;;;;;;5023430;28;20218;-69
2021/10/24 05:26:23;;;;;;;5.20;4.53;;;0.50;99.90;;;;;;5026146;28;20183;-69
2021/10/24 05:28:49;;;;;;;5.40;4.70;;;0.40;99.90;;;;;;5028364;28;20430;-69
2021/10/24 05:31:14;;;;;;;4.27;3.87;;;0.20;99.90;;;;;;5027953;28;20252;-69
2021/10/24 05:33:41;;;;;;;6.67;4.67;;;0.30;99.90;;;;;;5025268;28;20688;-69
2021/10/24 05:36:07;;;;;;;4.50;4.10;;;0.30;99.90;;;;;;5029031;28;20198;-69
2021/10/24 05:38:32;;;;;;;5.87;4.53;;;0.30;99.90;;;;;;5027694;28;20202;-68
2021/10/24 05:40:58;;;;;;;5.50;4.30;;;0.30;99.90;;;;;;5026357;28;20219;-68
2021/10/24 05:43:23;;;;;;;5.87;5.00;;;0.40;99.90;;;;;;5024495;28;20191;-68
2021/10/24 05:45:49;;;;;;;6.20;5.53;;;0.30;99.90;;;;;;5024401;28;20810;-69
2021/10/24 05:48:15;;;;;;;6.17;5.47;;;0.30;99.90;;;;;;5027553;28;20183;-68
2021/10/24 05:50:42;;;;;;;7.90;5.97;;;0.50;99.90;;;;;;5032853;28;20198;-68
2021/10/24 05:53:08;;;;;;;6.55;5.85;;;0.30;99.90;;;;;;5024670;28;20183;-69
2021/10/24 05:55:36;;;;;;;6.45;5.85;;;0.30;99.90;;;;;;5022323;28;20282;-69
2021/10/24 05:58:01;;;;;;;7.43;5.20;;;0.30;99.90;;;;;;5027376;28;20244;-69
2021/10/24 06:00:27;;;;;;;5.90;5.30;;;0.20;99.90;;;;;;5032487;28;20524;-70
2021/10/24 06:02:52;;;;;;;6.63;5.93;;;0.20;99.90;;;;;;5027992;28;20490;-69
2021/10/24 06:05:18;;;;;;;6.73;5.87;;;0.40;99.90;;;;;;5026081;28;20234;-68
2021/10/24 06:07:44;;;;;;;12.13;7.33;;;0.40;99.90;;;;;;5029203;28;20187;-68
2021/10/24 06:10:16;;;;;;;9.60;8.20;;;0.20;99.90;;;;;;5025844;28;20546;-68
2021/10/24 06:12:44;;;;;;;8.57;7.75;;;0.50;99.90;;;;;;5025396;28;20187;-69
2021/10/24 06:15:12;;;;;;;11.02;8.35;;;0.50;99.90;;;;;;5022647;28;20260;-68
2021/10/24 06:17:38;;;;;;;8.30;6.72;;;0.50;99.90;;;;;;5023208;28;20202;-68
2021/10/24 06:20:06;;;;;;;6.90;6.20;;;0.40;99.90;;;;;;5023462;28;20187;-68
2021/10/24 06:22:32;;;;;;;6.38;5.15;;;0.50;99.90;;;;;;5027385;28;20616;-69
2021/10/24 06:24:57;;;;;;;5.93;5.33;;;0.50;99.90;;;;;;5024923;28;20232;-70
2021/10/24 06:27:23;;;;;;;5.33;4.83;;;0.40;99.90;;;;;;5027370;28;20199;-71
2021/10/24 06:29:48;;;;;;;10.27;6.97;;;0.60;99.90;;;;;;5024392;28;20179;-70
2021/10/24 06:32:14;;;;;;;9.83;6.73;;;0.60;99.90;;;;;;5031584;28;20191;-69
2021/10/24 06:34:39;;;;;;;5.87;5.27;;;0.70;99.90;;;;;;5027360;28;20198;-69
2021/10/24 06:37:05;;;;;;;6.47;5.13;;;0.50;99.90;;;;;;5020941;28;20179;-69
2021/10/24 06:39:30;;;;;;;5.47;4.73;;;0.40;99.90;;;;;;5023015;28;20549;-68
2021/10/24 06:41:56;;;;;;;4.93;3.90;;;0.70;99.90;;;;;;5030937;28;20229;-68
2021/10/24 06:44:22;;;;;;;4.77;4.23;;;0.70;99.90;;;;;;5026681;28;20187;-69
2021/10/24 06:46:47;;;;;;;5.47;4.10;;;0.60;99.90;;;;;;5025395;28;20472;-68
2021/10/24 06:49:13;;;;;;;6.27;4.30;;;0.70;99.90;;;;;;5026291;28;20525;-68
2021/10/24 06:51:38;;;;;;;6.77;4.80;;;0.90;99.90;;;;;;5022127;28;20227;-71
2021/10/24 06:54:04;;;;;;;6.40;5.53;;;1.00;99.90;;;;;;5026365;28;20643;-68
2021/10/24 06:56:29;;;;;;;6.73;5.70;;;0.80;99.90;;;;;;5024191;28;20225;-68
2021/10/24 06:58:55;;;;;;;8.70;6.33;;;0.90;99.90;;;;;;5027902;28;20187;-69
2021/10/24 07:01:21;;;;;;;7.47;5.93;;;0.80;99.90;;;;;;5024645;28;20620;-68
2021/10/24 07:03:46;;;;;;;9.43;6.87;;;0.90;99.90;;;;;;5026487;28;20673;-68
2021/10/24 07:06:12;;;;;;;7.97;7.17;;;1.10;99.90;;;;;;5023400;28;20218;-68
2021/10/24 07:08:38;;;;;;;8.20;6.90;;;0.90;99.90;;;;;;5022154;28;20437;-68
2021/10/24 07:11:03;;;;;;;10.50;7.47;;;1.10;99.90;;;;;;5020271;28;20548;-70
2021/10/24 07:13:29;;;;;;;9.80;7.67;;;1.10;99.90;;;;;;5026564;28;20822;-69
2021/10/24 07:15:55;;;;;;;10.53;8.57;;;1.20;99.90;;;;;;5024703;28;20202;-68
2021/10/24 07:18:20;;;;;;;8.37;7.30;;;1.30;99.90;;;;;;5023601;28;20191;-69
2021/10/24 07:20:46;;;;;;;10.37;7.40;;;1.80;99.90;;;;;;5020599;28;20503;-68
2021/10/24 07:23:11;;;;;;;7.17;6.50;;;1.90;99.90;;;;;;5022734;28;20747;-68
2021/10/24 07:25:37;;;;;;;7.47;6.67;;;1.80;99.90;;;;;;5027366;28;20187;-68
2021/10/24 07:28:03;;;;;;;6.27;5.67;;;1.60;99.90;;;;;;5027062;28;20630;-67
2021/10/24 07:30:28;;;;;;;12.60;6.17;;;2.10;99.90;;;;;;5021932;28;20193;-67
2021/10/24 07:32:54;;;;;;;13.60;6.20;;;2.10;99.90;;;;;;5022115;28;20453;-68
2021/10/24 07:35:20;;;;;;;8.80;6.80;;;2.10;99.90;;;;;;5029114;28;20221;-70
2021/10/24 07:37:46;;;;;;;9.70;7.23;;;2.10;99.90;;;;;;5025882;28;20519;-68
2021/10/24 07:40:12;;;;;;;8.48;6.95;;;2.20;99.90;;;;;;5021880;28;20191;-68
2021/10/24 07:42:39;;;;;;;10.98;6.30;;;2.30;99.90;;;;;;5026499;28;20276;-67
2021/10/24 07:45:06;;;;;;;6.93;6.00;;;2.60;99.90;;;;;;5020742;28;20205;-68
2021/10/24 07:47:31;;;;;;;8.70;6.20;;;2.70;99.90;;;;;;5022629;28;20195;-68
2021/10/24 07:50:04;;;;;;;10.63;5.93;;;2.60;99.90;;;;;;5028073;28;20554;-67
2021/10/24 07:52:31;;;;;;;6.60;5.50;;;2.60;99.90;;;;;;5032263;28;20218;-72
2021/10/24 07:54:57;;;;;;;7.78;4.90;;;2.80;99.90;;;;;;5033157;28;20613;-68
2021/10/24 07:57:23;;;;;;;6.30;5.33;;;3.10;99.90;;;;;;5021649;28;20191;-69
2021/10/24 07:59:48;;;;;;;10.40;5.50;;;3.00;99.90;;;;;;5023018;28;20526;-68
2021/10/24 08:02:18;;;;;;;7.23;5.97;;;3.50;99.90;;;;;;5025193;28;20474;-68
2021/10/24 08:04:47;;;;;;;7.80;7.00;;;3.40;99.90;;;;;;5027328;28;20195;-70
2021/10/24 08:07:13;;;;;;;7.10;5.90;;;3.80;99.90;;;;;;5024017;28;20221;-69
2021/10/24 08:09:40;;;;;;;9.83;7.70;;;3.90;99.90;;;;;;5023024;28;20250;-70
2021/10/24 08:12:06;;;;;;;11.50;9.45;;;4.50;99.90;;;;;;5029778;28;20436;-70
2021/10/24 08:14:31;;;;;;;10.95;8.45;;;5.20;99.90;;;;;;5025199;28;20179;-70
2021/10/24 08:16:58;;;;;;;8.60;6.83;;;5.80;99.90;;;;;;5024754;28;20196;-71
2021/10/24 08:19:23;;;;;;;8.80;6.95;;;7.10;99.90;;;;;;5025855;28;20176;-67
2021/10/24 08:21:50;;;;;;;5.70;5.20;;;7.90;99.90;;;;;;5027286;28;20210;-73
2021/10/24 08:24:16;;;;;;;5.88;5.38;;;8.80;99.90;;;;;;5029898;28;20183;-69
2021/10/24 08:26:42;;;;;;;8.82;6.55;;;8.90;99.90;;;;;;5032964;28;20223;-70
2021/10/24 08:29:07;;;;;;;8.63;7.57;;;9.60;99.90;;;;;;5015977;28;20258;-70
2021/10/24 08:31:33;;;;;;;9.70;7.00;;;10.80;99.90;;;;;;5026794;28;20191;-68
2021/10/24 08:34:00;;;;;;;8.47;7.53;;;12.60;99.90;;;;;;5033187;28;20195;-70
2021/10/24 08:36:27;;;;;;;7.80;7.10;;;13.80;99.90;;;;;;5037341;28;20191;-69
2021/10/24 08:38:53;;;;;;;8.00;7.30;;;15.40;99.90;;;;;;5034261;28;20524;-71
2021/10/24 08:41:27;;;;;;;7.60;6.03;;;16.90;99.90;;;;;;5028349;28;20441;-68
2021/10/24 08:43:58;;;;;;;6.43;5.83;;;18.60;99.90;;;;;;5029343;28;20431;-68
2021/10/24 08:46:24;;;;;;;7.10;6.50;;;19.70;94.90;;;;;;5030787;28;20849;-68
2021/10/24 08:48:51;;;;;;;5.80;5.30;;;21.00;84.90;;;;;;5030104;28;20440;-69
2021/10/24 08:51:17;;;;;;;5.13;4.70;;;22.30;72.60;;;;;;5025511;28;20460;-67
2021/10/24 08:53:44;;;;;;;4.80;4.40;;;23.60;61.20;;;;;;5020383;28;20794;-68
2021/10/24 08:56:18;;;;;;;4.60;4.23;;;24.50;52.40;;;;;;5025987;28;20525;-69
2021/10/24 08:58:45;;;;;;;4.80;4.40;;;25.60;46.00;;;;;;5027965;28;20448;-70
2021/10/24 09:01:11;;;;;;;4.73;4.37;;;26.30;42.20;;;;;;5028379;28;20538;-68
2021/10/24 09:03:37;;;;;;;4.77;4.47;;;26.80;38.50;;;;;;5026153;28;20463;-69
2021/10/24 09:06:05;;;;;;;4.70;4.30;;;27.30;34.60;;;;;;5019463;28;20487;-69
2021/10/24 09:08:35;;;;;;;5.23;4.73;;;27.70;33.20;;;;;;5021546;28;20449;-68
2021/10/24 09:11:02;;;;;;;4.43;4.03;;;28.20;32.40;;;;;;5022725;28;20939;-69
2021/10/24 09:13:31;;;;;;;4.10;3.80;;;28.60;29.80;;;;;;5024301;28;20430;-69
2021/10/24 09:16:00;;;;;;;4.00;3.70;;;28.90;29.00;;;;;;5024267;28;20473;-68
2021/10/24 09:18:34;;;;;;;4.50;4.20;;;29.30;28.30;;;;;;5024739;28;21038;-68
2021/10/24 09:21:15;;;;;;;4.67;4.30;;;29.40;27.10;;;;;;5017219;28;20952;-69
2021/10/24 09:23:59;;;;;;;5.00;4.60;;;29.70;27.80;;;;;;5017845;28;20452;-71
2021/10/24 09:26:30;;;;;;;4.40;4.10;;;30.30;26.40;;;;;;5019978;28;20446;-68
2021/10/24 09:29:14;;;;;;;3.70;3.27;;;30.80;26.10;;;;;;5021826;28;20443;-70
2021/10/24 09:31:42;;;;;;;4.57;4.27;;;31.40;25.90;;;;;;5024636;28;21023;-68
2021/10/24 09:34:16;;;;;;;3.93;3.63;;;31.70;24.00;;;;;;5022168;28;20855;-69
2021/10/24 09:37:08;;;;;;;3.97;3.67;;;31.90;23.90;;;;;;5026350;28;20445;-68
2021/10/24 09:39:37;;;;;;;3.43;3.13;;;32.20;24.00;;;;;;5027231;28;20541;-68
2021/10/24 09:42:12;;;;;;;4.17;3.87;;;32.40;23.20;;;;;;5022568;28;20499;-71
2021/10/24 09:44:57;;;;;;;4.23;3.83;;;32.40;23.20;;;;;;5021056;28;20448;-68
2021/10/24 09:47:22;;;;;;;3.50;3.30;;;32.60;22.50;;;;;;5020941;28;20457;-69
2021/10/24 09:49:48;;;;;;;3.90;3.70;;;32.80;22.60;;;;;;5019075;28;20434;-69
2021/10/24 09:52:31;;;;;;;3.47;3.23;;;32.90;22.20;;;;;;5024081;28;21386;-69
2021/10/24 09:54:57;;;;;;;4.10;3.80;;;33.10;22.50;;;;;;5020503;28;20198;-68
2021/10/24 09:57:23;;;;;;;4.10;3.80;;;33.50;22.10;;;;;;5022215;28;20580;-70
2021/10/24 09:59:51;;;;;;;3.53;3.33;;;33.80;21.30;;;;;;5023089;28;20783;-69
2021/10/24 10:02:19;;;;;;;4.13;3.87;;;34.00;21.20;;;;;;5025633;28;20478;-68
2021/10/24 10:04:45;;;;;;;3.87;3.57;;;34.30;21.30;;;;;;5021688;28;20429;-71
2021/10/24 10:07:11;;;;;;;4.50;4.10;;;34.40;20.70;;;;;;5023378;28;20433;-68
2021/10/24 10:09:38;;;;;;;4.17;3.87;;;34.60;20.80;;;;;;5024982;28;20441;-69
2021/10/24 10:12:05;;;;;;;3.77;3.40;;;34.90;20.10;;;;;;5020898;28;20457;-69
2021/10/24 10:14:36;;;;;;;3.67;3.37;;;35.20;20.50;;;;;;5019400;28;20447;-69
2021/10/24 10:17:09;;;;;;;3.70;3.40;;;35.10;19.60;;;;;;5022562;28;20434;-68
2021/10/24 10:19:37;;;;;;;3.77;3.40;;;34.90;20.30;;;;;;5020084;28;20537;-68
2021/10/24 10:22:34;;;;;;;4.30;3.97;;;35.10;19.90;;;;;;5018573;28;20487;-68
2021/10/24 10:25:07;;;;;;;3.60;3.30;;;35.30;19.30;;;;;;5021056;28;20531;-68
2021/10/24 10:27:35;;;;;;;3.90;3.53;;;35.20;19.70;;;;;;5022308;28;20575;-68
2021/10/24 10:30:15;;;;;;;3.50;3.20;;;35.20;19.80;;;;;;5020920;28;20447;-69
2021/10/24 10:32:46;;;;;;;4.00;3.30;;;35.30;19.40;;;;;;5023620;28;20465;-68
2021/10/24 10:35:15;;;;;;;3.27;3.07;;;35.40;19.60;;;;;;5020332;28;20484;-69
2021/10/24 10:37:58;;;;;;;3.83;3.53;;;35.80;19.60;;;;;;5010664;28;20435;-70
2021/10/24 10:40:34;;;;;;;3.60;3.30;;;36.20;18.80;;;;;;5026138;28;20445;-69
2021/10/24 10:43:19;;;;;;;4.13;3.83;;;36.10;18.80;;;;;;5020367;28;20830;-69
2021/10/24 10:45:52;;;;;;;4.30;3.90;;;36.30;18.50;;;;;;5022302;28;20955;-70
2021/10/24 10:48:23;;;;;;;4.07;3.73;;;36.50;18.20;;;;;;5014153;28;20434;-68
2021/10/24 10:51:00;;;;;;;4.77;4.40;;;36.50;18.00;;;;;;5022095;28;20465;-69
2021/10/24 10:53:32;;;;;;;4.00;3.70;;;36.40;18.20;;;;;;5018820;28;20459;-69
2021/10/24 10:56:01;;;;;;;3.90;3.60;;;36.40;18.40;;;;;;5021857;28;21057;-70
2021/10/24 10:58:27;;;;;;;4.37;3.97;;;36.50;19.00;;;;;;5022127;28;20453;-68
2021/10/24 11:00:56;;;;;;;5.00;4.60;;;36.50;18.00;;;;;;5023106;28;20444;-67
2021/10/24 11:03:44;;;;;;;3.73;3.53;;;36.30;18.10;;;;;;5026062;28;20530;-67
2021/10/24 11:06:11;;;;;;;3.97;3.67;;;36.20;18.60;;;;;;5023947;28;20832;-68
2021/10/24 11:08:54;;;;;;;4.10;3.77;;;36.40;18.20;;;;;;5023413;28;20945;-67
2021/10/24 11:11:43;;;;;;;4.10;3.70;;;36.40;18.90;;;;;;5022617;28;20453;-69
2021/10/24 11:14:15;;;;;;;3.83;3.53;;;36.60;18.40;;;;;;5025812;28;20455;-68
2021/10/24 11:16:54;;;;;;;3.30;3.10;;;36.70;18.50;;;;;;5025533;28;20455;-68
2021/10/24 11:19:25;;;;;;;4.70;3.60;;;36.90;18.80;;;;;;5011281;28;20451;-69
2021/10/24 11:22:06;;;;;;;3.73;3.43;;;36.90;18.20;;;;;;5023271;28;20494;-69
2021/10/24 11:24:40;;;;;;;4.30;4.00;;;37.10;18.10;;;;;;5016739;28;20473;-68
2021/10/24 11:27:08;;;;;;;4.23;3.57;;;37.00;17.80;;;;;;5023486;28;20446;-69
2021/10/24 11:29:33;;;;;;;3.53;3.33;;;36.90;18.20;;;;;;5023653;28;20500;-69
2021/10/24 11:32:21;;;;;;;3.60;3.40;;;36.90;18.30;;;;;;5027233;28;20537;-71
2021/10/24 11:34:47;;;;;;;4.00;3.70;;;37.20;18.20;;;;;;5018972;28;20199;-69
2021/10/24 11:37:13;;;;;;;3.97;3.67;;;37.50;18.20;;;;;;5023951;28;20465;-69
2021/10/24 11:39:39;;;;;;;4.73;4.13;;;37.70;17.80;;;;;;5027677;28;20274;-69
2021/10/24 11:42:06;;;;;;;3.40;3.20;;;38.00;18.00;;;;;;5026979;28;20564;-68
2021/10/24 11:44:32;;;;;;;3.70;3.40;;;38.20;17.30;;;;;;5026742;28;21399;-70
2021/10/24 11:47:12;;;;;;;3.80;3.43;;;38.10;17.50;;;;;;5022474;28;20791;-70
2021/10/24 11:49:55;;;;;;;3.57;3.23;;;38.10;17.30;;;;;;5019983;28;20190;-70
2021/10/24 11:52:23;;;;;;;3.23;3.03;;;38.10;17.90;;;;;;5025978;28;20441;-73
2021/10/24 11:55:07;;;;;;;3.87;3.43;;;38.10;17.20;;;;;;5030357;28;20442;-69
2021/10/24 12:02:57;;;;;;;3.10;2.80;;;38.30;17.60;;;;;;5029510;28;20502;-69
2021/10/24 12:05:27;;;;;;;2.90;2.70;;;38.40;17.30;;;;;;5027422;28;20472;-68
2021/10/24 12:07:53;;;;;;;4.50;3.20;;;38.50;17.10;;;;;;5029493;28;20429;-72
2021/10/24 12:10:20;;;;;;;3.77;3.47;;;38.80;16.90;;;;;;5030868;28;20936;-69
2021/10/24 12:12:46;;;;;;;3.33;3.13;;;39.20;17.00;;;;;;5029063;28;20488;-69
2021/10/24 12:15:15;;;;;;;3.60;3.40;;;39.40;16.80;;;;;;5028279;28;20496;-70
2021/10/24 12:17:42;;;;;;;4.10;3.80;;;39.70;16.20;;;;;;5026659;28;20223;-69
2021/10/24 12:20:25;;;;;;;3.80;3.50;;;39.70;16.50;;;;;;5028113;28;20500;-68
2021/10/24 12:23:03;;;;;;;3.80;3.50;;;39.60;16.80;;;;;;5029142;28;20824;-72
2021/10/24 12:25:42;;;;;;;3.57;3.17;;;39.90;16.70;;;;;;5027304;28;20818;-69
2021/10/24 12:28:13;;;;;;;4.00;3.70;;;40.20;16.60;;;;;;5018926;28;20488;-69
2021/10/24 12:30:38;;;;;;;4.97;3.80;;;40.40;16.40;;;;;;5029657;28;20522;-68
2021/10/24 12:33:06;;;;;;;4.80;4.40;;;40.30;16.10;;;;;;5028521;28;21026;-68
2021/10/24 12:35:50;;;;;;;5.37;4.60;;;40.50;16.40;;;;;;5025678;28;20677;-68
2021/10/24 12:38:17;;;;;;;4.30;4.00;;;40.60;16.50;;;;;;5021584;28;20441;-70
2021/10/24 12:40:56;;;;;;;3.97;3.67;;;39.90;16.50;;;;;;5023289;28;20588;-69
2021/10/24 12:43:23;;;;;;;4.07;3.80;;;39.70;17.40;;;;;;5023533;28;20429;-69
2021/10/24 12:45:58;;;;;;;4.67;4.37;;;39.40;16.60;;;;;;5025421;28;20438;-69
2021/10/24 12:48:40;;;;;;;4.73;4.03;;;39.60;17.10;;;;;;5021311;28;20434;-70
2021/10/24 12:51:23;;;;;;;4.67;4.27;;;39.20;17.30;;;;;;5024168;28;20437;-71
2021/10/24 12:53:49;;;;;;;4.37;4.07;;;39.20;17.40;;;;;;5028926;28;20453;-68
2021/10/24 12:56:15;;;;;;;5.00;4.60;;;39.40;17.50;;;;;;5022648;28;20442;-69
2021/10/24 12:58:40;;;;;;;4.23;3.93;;;39.40;17.10;;;;;;5026427;28;20430;-68
2021/10/24 13:01:06;;;;;;;4.30;3.90;;;39.30;17.30;;;;;;5020545;28;20195;-70